Time;durP1;ratioP1;P1;durP2;ratioP2;P2;SDS_P1;SDS_P2;PMS_P1;PMS_P2;Temp;Humidity;BMP_temperature;BMP_pressure;BME280_temperature;BME280_humidity;BME280_pressure;Samples;Min_cycle;Max_cycle;Signal;HPM_P1;HPM_P2
2023/10/01 00:00:16;;;;;;;14.13;5.53;;;15.60;89.80;;;;;;5136057;27;20390;-78
2023/10/01 00:02:42;;;;;;;9.85;5.40;;;15.60;89.90;;;;;;5138042;27;20434;-79
2023/10/01 00:05:10;;;;;;;12.50;5.47;;;15.60;89.90;;;;;;5138195;27;20130;-80
2023/10/01 00:07:40;;;;;;;17.33;6.25;;;15.60;89.80;;;;;;5137862;27;20038;-79
2023/10/01 00:10:11;;;;;;;19.33;6.25;;;15.60;90.10;;;;;;5137808;27;20140;-79
2023/10/01 00:12:44;;;;;;;19.20;6.93;;;15.60;90.20;;;;;;5137972;27;20121;-78
2023/10/01 00:15:12;;;;;;;15.75;6.38;;;15.60;90.30;;;;;;5126336;27;20068;-79
2023/10/01 00:17:39;;;;;;;13.88;6.20;;;15.60;90.00;;;;;;5141044;27;20049;-78
2023/10/01 00:20:17;;;;;;;13.88;7.63;;;15.60;89.90;;;;;;5141547;27;20046;-79
2023/10/01 00:22:43;;;;;;;19.23;7.30;;;15.60;89.90;;;;;;5158650;27;20461;-79
2023/10/01 00:25:10;;;;;;;15.20;7.40;;;15.60;90.10;;;;;;5158491;27;20076;-80
2023/10/01 00:27:37;;;;;;;13.68;6.75;;;15.60;90.20;;;;;;5158440;27;20042;-79
2023/10/01 00:30:04;;;;;;;19.65;7.22;;;15.60;90.00;;;;;;5158239;27;20044;-79
2023/10/01 00:32:30;;;;;;;13.93;6.57;;;15.60;90.10;;;;;;5138860;27;20408;-78
2023/10/01 00:34:57;;;;;;;16.27;6.55;;;15.60;89.90;;;;;;5137448;27;20045;-79
2023/10/01 00:37:23;;;;;;;14.93;6.85;;;15.60;89.80;;;;;;5137495;27;20126;-79
2023/10/01 00:39:54;;;;;;;18.35;7.13;;;15.60;89.70;;;;;;5137687;27;20383;-79
2023/10/01 00:42:21;;;;;;;15.90;6.97;;;15.70;89.70;;;;;;5120909;27;20078;-78
2023/10/01 00:44:47;;;;;;;15.63;6.72;;;15.60;89.70;;;;;;5137088;27;20117;-79
2023/10/01 00:47:14;;;;;;;16.38;6.78;;;15.60;89.80;;;;;;5137884;27;20034;-79
2023/10/01 00:49:47;;;;;;;10.60;6.20;;;15.60;89.60;;;;;;5119990;27;20042;-79
2023/10/01 00:52:20;;;;;;;13.63;6.28;;;15.60;89.70;;;;;;5136911;27;20113;-79
2023/10/01 00:54:47;;;;;;;12.38;6.72;;;15.60;89.60;;;;;;5136991;27;20081;-79
2023/10/01 00:57:16;;;;;;;13.95;6.82;;;15.60;89.70;;;;;;5137304;27;20078;-80
2023/10/01 00:59:46;;;;;;;12.75;6.40;;;15.50;89.70;;;;;;5137181;27;20375;-80
2023/10/01 01:02:15;;;;;;;13.13;7.10;;;15.50;90.00;;;;;;5136965;27;20038;-78
2023/10/01 01:04:44;;;;;;;14.57;6.20;;;15.50;89.70;;;;;;5147930;27;20041;-80
2023/10/01 01:07:19;;;;;;;10.52;6.30;;;15.50;89.70;;;;;;5157777;27;20405;-80
2023/10/01 01:09:46;;;;;;;14.23;7.25;;;15.50;89.90;;;;;;5157614;27;20038;-80
2023/10/01 01:12:13;;;;;;;17.65;6.82;;;15.40;89.90;;;;;;5140606;27;20030;-79
2023/10/01 01:14:46;;;;;;;15.93;6.30;;;15.40;89.90;;;;;;5157745;27;20046;-79
2023/10/01 01:17:12;;;;;;;14.38;7.20;;;15.40;89.80;;;;;;5157610;27;20042;-79
2023/10/01 01:19:38;;;;;;;12.77;6.78;;;15.40;90.00;;;;;;5147460;27;20045;-80
2023/10/01 01:22:05;;;;;;;18.65;7.82;;;15.40;89.90;;;;;;5136597;27;20043;-79
2023/10/01 01:24:31;;;;;;;17.15;8.40;;;15.30;90.00;;;;;;5119967;27;20046;-78
2023/10/01 01:27:00;;;;;;;18.75;7.90;;;15.30;90.30;;;;;;5119330;27;20135;-79
2023/10/01 01:29:34;;;;;;;17.33;7.53;;;15.30;90.10;;;;;;5120215;27;20091;-78
2023/10/01 01:32:19;;;;;;;19.00;8.35;;;15.30;90.00;;;;;;5136566;27;20043;-79
2023/10/01 01:34:45;;;;;;;19.10;9.15;;;15.20;90.10;;;;;;5136600;27;20087;-79
2023/10/01 01:37:36;;;;;;;18.00;8.73;;;15.20;90.40;;;;;;5136876;27;20046;-79
2023/10/01 01:40:25;;;;;;;18.17;10.25;;;15.20;90.10;;;;;;5122733;27;20035;-79
2023/10/01 01:42:50;;;;;;;16.08;9.50;;;15.20;90.20;;;;;;5139359;27;20047;-81
2023/10/01 01:45:19;;;;;;;14.88;9.43;;;15.20;90.30;;;;;;5136393;27;20043;-80
2023/10/01 01:47:45;;;;;;;21.63;9.65;;;15.20;90.30;;;;;;5119818;27;20488;-78
2023/10/01 01:50:21;;;;;;;16.70;10.00;;;15.20;90.10;;;;;;5119897;27;20062;-81
2023/10/01 01:52:50;;;;;;;18.73;10.70;;;15.20;90.20;;;;;;5138954;27;20486;-80
2023/10/01 01:55:25;;;;;;;18.38;10.77;;;15.20;90.50;;;;;;5139626;27;20046;-80
2023/10/01 01:58:26;;;;;;;19.38;11.43;;;15.10;90.50;;;;;;5138184;27;20042;-79
2023/10/01 02:01:01;;;;;;;19.70;9.98;;;15.10;90.70;;;;;;5133293;27;20490;-81
2023/10/01 02:03:33;;;;;;;20.70;11.35;;;15.10;90.40;;;;;;5104736;27;20045;-81
2023/10/01 02:06:01;;;;;;;18.48;11.88;;;15.10;90.50;;;;;;5102685;27;20490;-80
2023/10/01 02:08:47;;;;;;;16.98;11.38;;;15.10;90.30;;;;;;5118958;27;20034;-80
2023/10/01 02:11:14;;;;;;;22.10;12.57;;;15.10;90.30;;;;;;5136711;27;20072;-79
2023/10/01 02:13:41;;;;;;;20.85;12.23;;;15.20;90.40;;;;;;5136671;27;20100;-80
2023/10/01 02:16:30;;;;;;;24.55;13.43;;;15.20;90.30;;;;;;5136863;27;20038;-80
2023/10/01 02:19:21;;;;;;;21.95;13.13;;;15.20;90.30;;;;;;5138249;27;20046;-80
2023/10/01 02:21:59;;;;;;;21.23;13.85;;;15.20;90.20;;;;;;5140428;27;20051;-81
2023/10/01 02:27:18;;;;;;;18.10;12.18;;;15.20;90.20;;;;;;5140072;27;20065;-80
2023/10/01 02:32:28;;;;;;;18.23;12.68;;;15.10;90.10;;;;;;5139986;27;19919;-81
2023/10/01 02:34:57;;;;;;;18.77;12.70;;;15.20;90.10;;;;;;5139715;27;20038;-80
2023/10/01 02:37:29;;;;;;;19.67;13.57;;;15.10;90.00;;;;;;5122383;27;20039;-80
2023/10/01 02:40:01;;;;;;;22.85;12.85;;;15.10;90.00;;;;;;5122537;27;20039;-80
2023/10/01 02:42:31;;;;;;;22.80;13.23;;;15.10;90.40;;;;;;5139848;27;20420;-80
2023/10/01 02:44:58;;;;;;;20.40;13.55;;;15.00;90.30;;;;;;5122448;27;20129;-80
2023/10/01 02:47:25;;;;;;;20.55;13.63;;;15.00;90.20;;;;;;5139635;27;20046;-80
2023/10/01 02:49:53;;;;;;;21.50;14.40;;;15.10;90.20;;;;;;5122529;27;20551;-81
2023/10/01 02:52:36;;;;;;;26.20;13.77;;;15.10;90.30;;;;;;5122673;27;20034;-81
2023/10/01 02:55:06;;;;;;;21.70;13.68;;;15.10;90.20;;;;;;5122435;27;20049;-81
2023/10/01 02:57:33;;;;;;;26.67;15.55;;;15.10;90.30;;;;;;5122021;27;20046;-81
2023/10/01 03:02:43;;;;;;;22.05;13.45;;;15.10;90.10;;;;;;5139196;27;20058;-81
2023/10/01 03:05:18;;;;;;;20.42;14.40;;;15.10;90.10;;;;;;5139191;27;20122;-80
2023/10/01 03:07:50;;;;;;;22.83;14.52;;;15.10;90.20;;;;;;5139245;27;20074;-80
2023/10/01 03:10:25;;;;;;;23.58;14.95;;;15.10;90.20;;;;;;5139054;27;20046;-81
2023/10/01 03:12:58;;;;;;;18.50;13.82;;;15.10;90.10;;;;;;5122127;27;20039;-81
2023/10/01 03:15:25;;;;;;;23.85;14.45;;;15.20;90.20;;;;;;5126481;27;20493;-79
2023/10/01 03:17:56;;;;;;;20.13;12.93;;;15.20;90.30;;;;;;5142925;27;20042;-82
2023/10/01 03:23:13;;;;;;;19.42;11.48;;;15.20;90.20;;;;;;5159821;27;20469;-81
2023/10/01 03:25:56;;;;;;;22.33;13.65;;;15.20;90.10;;;;;;5141903;27;20478;-80
2023/10/01 03:28:26;;;;;;;22.25;13.65;;;15.20;90.20;;;;;;5144679;27;20126;-81
2023/10/01 03:31:09;;;;;;;16.02;11.35;;;15.20;90.30;;;;;;5154948;27;20039;-81
2023/10/01 03:33:39;;;;;;;22.73;13.77;;;15.30;90.20;;;;;;5121918;27;20364;-80
2023/10/01 03:36:09;;;;;;;24.77;14.25;;;15.30;90.00;;;;;;5138547;27;20111;-80
2023/10/01 03:38:39;;;;;;;22.27;12.90;;;15.30;89.90;;;;;;5122209;27;20045;-81
2023/10/01 03:41:08;;;;;;;20.65;13.60;;;15.30;89.80;;;;;;5138719;27;20041;-81
2023/10/01 03:43:35;;;;;;;20.40;13.35;;;15.30;89.70;;;;;;5121982;27;20043;-81
2023/10/01 03:48:58;;;;;;;20.55;12.88;;;15.30;90.10;;;;;;5138374;27;20390;-80
2023/10/01 03:51:29;;;;;;;21.58;13.82;;;15.30;90.20;;;;;;5123375;27;20501;-80
2023/10/01 03:53:59;;;;;;;19.13;14.13;;;15.30;90.30;;;;;;5138531;27;20390;-80
2023/10/01 03:56:30;;;;;;;21.65;13.27;;;15.30;90.10;;;;;;5138098;27;20049;-81
2023/10/01 03:58:56;;;;;;;21.95;14.13;;;15.30;90.20;;;;;;5121185;27;20042;-81
2023/10/01 04:01:32;;;;;;;16.90;12.02;;;15.30;90.00;;;;;;5138441;27;20563;-81
2023/10/01 04:04:00;;;;;;;18.08;12.88;;;15.30;90.00;;;;;;5148517;27;20045;-82
2023/10/01 04:06:27;;;;;;;22.70;13.65;;;15.40;90.10;;;;;;5141681;27;20034;-81
2023/10/01 04:08:55;;;;;;;18.13;12.05;;;15.30;90.10;;;;;;5141346;27;20038;-79
2023/10/01 04:11:41;;;;;;;19.10;13.20;;;15.30;90.20;;;;;;5141406;27;20097;-80
2023/10/01 04:14:17;;;;;;;18.58;11.95;;;15.40;90.30;;;;;;5158756;27;20045;-80
2023/10/01 04:16:48;;;;;;;20.23;12.88;;;15.30;90.30;;;;;;5141561;27;20038;-82
2023/10/01 04:19:18;;;;;;;24.05;14.70;;;15.40;90.20;;;;;;5142500;27;20065;-80
2023/10/01 04:21:50;;;;;;;19.10;12.20;;;15.30;90.30;;;;;;5149781;27;20066;-82
2023/10/01 04:24:21;;;;;;;18.67;11.60;;;15.30;90.30;;;;;;5104933;27;20043;-81
2023/10/01 04:26:49;;;;;;;18.27;12.63;;;15.30;90.20;;;;;;5137385;27;20042;-79
2023/10/01 04:29:16;;;;;;;19.55;12.70;;;15.30;90.40;;;;;;5120336;27;20448;-80
2023/10/01 04:31:48;;;;;;;20.75;13.05;;;15.30;90.40;;;;;;5103529;27;20051;-81
2023/10/01 04:34:15;;;;;;;17.63;11.95;;;15.40;90.60;;;;;;5137380;27;20095;-81
2023/10/01 04:36:51;;;;;;;21.50;12.85;;;15.30;90.70;;;;;;5103446;27;20043;-82
2023/10/01 04:39:17;;;;;;;24.08;13.52;;;15.30;90.90;;;;;;5137297;27;20071;-80
2023/10/01 04:41:45;;;;;;;19.23;12.23;;;15.30;91.40;;;;;;5137039;27;20030;-81
2023/10/01 04:44:13;;;;;;;21.05;12.32;;;15.30;91.20;;;;;;5120246;27;20174;-81
2023/10/01 04:46:45;;;;;;;25.83;12.82;;;15.30;91.00;;;;;;5136939;27;20439;-81
2023/10/01 04:49:27;;;;;;;18.50;11.30;;;15.40;91.00;;;;;;5120144;27;20431;-80
2023/10/01 04:51:58;;;;;;;17.80;11.57;;;15.40;91.20;;;;;;5147797;27;20446;-81
2023/10/01 04:54:26;;;;;;;18.27;10.98;;;15.30;91.10;;;;;;5146278;27;20102;-80
2023/10/01 04:56:55;;;;;;;20.33;10.63;;;15.30;91.60;;;;;;5157605;27;20544;-81
2023/10/01 04:59:20;;;;;;;14.50;9.25;;;15.40;91.40;;;;;;5157677;27;20042;-82
2023/10/01 05:01:56;;;;;;;20.02;9.13;;;15.40;91.70;;;;;;5157684;27;20042;-80
2023/10/01 05:04:23;;;;;;;18.13;9.20;;;15.40;91.90;;;;;;5141885;27;20038;-81
2023/10/01 05:07:00;;;;;;;20.13;9.88;;;15.40;92.00;;;;;;5140391;27;20393;-81
2023/10/01 05:09:28;;;;;;;19.20;9.68;;;15.30;92.00;;;;;;5154393;27;20042;-79
2023/10/01 05:11:55;;;;;;;15.57;8.55;;;15.30;92.40;;;;;;5151876;27;20034;-79
2023/10/01 05:14:22;;;;;;;21.33;8.95;;;15.30;92.80;;;;;;5157568;27;20046;-81
2023/10/01 05:16:49;;;;;;;20.00;9.57;;;15.30;92.20;;;;;;5157789;27;20042;-80
2023/10/01 05:19:16;;;;;;;20.15;8.65;;;15.30;92.10;;;;;;5157659;27;20045;-79
2023/10/01 05:21:46;;;;;;;16.50;8.65;;;15.30;92.70;;;;;;5157174;27;20035;-81
2023/10/01 05:24:35;;;;;;;16.98;9.50;;;15.20;92.30;;;;;;5123438;27;20034;-81
2023/10/01 05:27:09;;;;;;;14.73;8.48;;;15.20;92.50;;;;;;5135926;27;20050;-79
2023/10/01 05:29:38;;;;;;;21.30;9.18;;;15.20;92.30;;;;;;5136657;27;20043;-83
2023/10/01 05:32:04;;;;;;;19.88;10.18;;;15.20;93.10;;;;;;5137063;27;20096;-81
2023/10/01 05:34:31;;;;;;;15.57;9.00;;;15.10;93.70;;;;;;5136796;27;20079;-77
2023/10/01 05:37:08;;;;;;;19.10;9.23;;;15.10;93.60;;;;;;5136566;27;20083;-79
2023/10/01 05:39:57;;;;;;;25.10;10.75;;;15.10;93.50;;;;;;5104117;27;20090;-78
2023/10/01 05:42:25;;;;;;;22.02;10.20;;;15.00;94.30;;;;;;5136681;27;20042;-80
2023/10/01 05:44:54;;;;;;;29.58;11.65;;;15.00;93.80;;;;;;5136264;27;20477;-78
2023/10/01 05:47:22;;;;;;;22.55;11.18;;;15.00;94.10;;;;;;5136966;27;20066;-79
2023/10/01 05:49:53;;;;;;;24.15;11.98;;;15.00;94.00;;;;;;5136520;27;20113;-78
2023/10/01 05:52:20;;;;;;;30.67;12.05;;;15.00;95.00;;;;;;5135997;27;20038;-78
2023/10/01 05:54:55;;;;;;;30.73;12.57;;;15.00;95.00;;;;;;5139062;27;20121;-80
2023/10/01 05:57:21;;;;;;;26.23;11.65;;;15.00;94.90;;;;;;5139554;27;20572;-80
2023/10/01 05:59:56;;;;;;;26.63;12.00;;;15.00;95.00;;;;;;5139797;27;20045;-80
2023/10/01 06:07:56;;;;;;;22.33;11.15;;;15.00;95.10;;;;;;5160574;27;20481;-80
2023/10/01 06:10:35;;;;;;;20.52;10.45;;;15.00;95.10;;;;;;5160408;27;20035;-79
2023/10/01 06:13:06;;;;;;;27.95;11.65;;;15.00;95.30;;;;;;5143324;27;20113;-81
2023/10/01 06:15:33;;;;;;;24.98;11.48;;;15.00;95.50;;;;;;5141060;27;20485;-78
2023/10/01 06:18:01;;;;;;;22.35;12.40;;;15.10;95.70;;;;;;5156951;27;20410;-80
2023/10/01 06:20:33;;;;;;;30.85;12.73;;;15.10;95.30;;;;;;5143881;27;20042;-79
2023/10/01 06:23:02;;;;;;;26.55;12.23;;;15.10;95.50;;;;;;5142942;27;20037;-80
2023/10/01 06:25:43;;;;;;;28.35;13.68;;;15.10;95.50;;;;;;5159963;27;20042;-78
2023/10/01 06:28:09;;;;;;;29.92;14.75;;;15.10;95.20;;;;;;5160097;27;20497;-78
2023/10/01 06:30:40;;;;;;;29.48;15.25;;;15.10;95.70;;;;;;5160330;27;20038;-78
2023/10/01 06:33:24;;;;;;;26.77;13.18;;;15.20;95.60;;;;;;5125924;27;20041;-80
2023/10/01 06:39:01;;;;;;;24.95;11.40;;;15.20;95.60;;;;;;5076718;28;20052;-77
2023/10/01 06:41:28;;;;;;;21.30;11.10;;;15.20;95.90;;;;;;5076843;28;20044;-80
2023/10/01 06:43:54;;;;;;;26.15;10.55;;;15.30;95.80;;;;;;5116306;27;20046;-78
2023/10/01 06:46:28;;;;;;;30.70;11.13;;;15.30;95.60;;;;;;5159710;27;20049;-80
2023/10/01 06:49:03;;;;;;;25.63;10.35;;;15.30;95.40;;;;;;5159919;27;20430;-78
2023/10/01 06:51:37;;;;;;;19.67;9.95;;;15.30;95.70;;;;;;5156335;27;20053;-76
2023/10/01 06:54:06;;;;;;;19.75;10.27;;;15.40;95.30;;;;;;5138970;27;20034;-78
2023/10/01 06:56:35;;;;;;;22.17;11.00;;;15.40;95.30;;;;;;5138954;27;20039;-82
2023/10/01 07:01:35;;;;;;;19.13;10.15;;;15.50;95.10;;;;;;5138830;27;20039;-77
2023/10/01 07:04:05;;;;;;;23.70;10.75;;;15.50;95.00;;;;;;5138451;27;20129;-79
2023/10/01 07:06:37;;;;;;;17.23;9.75;;;15.50;94.90;;;;;;5121540;27;20066;-76
2023/10/01 07:09:24;;;;;;;17.48;10.35;;;15.60;94.80;;;;;;5147440;27;20099;-80
2023/10/01 07:12:10;;;;;;;19.45;9.43;;;15.70;94.60;;;;;;5142109;27;20062;-81
2023/10/01 07:14:39;;;;;;;16.65;9.45;;;15.70;94.50;;;;;;5158664;27;20053;-80
2023/10/01 07:17:15;;;;;;;20.58;9.80;;;15.70;94.40;;;;;;5159402;27;20102;-77
2023/10/01 07:19:45;;;;;;;19.55;9.90;;;15.70;94.30;;;;;;5159515;27;20398;-79
2023/10/01 07:22:14;;;;;;;20.85;9.27;;;15.70;94.10;;;;;;5159000;27;20397;-79
2023/10/01 07:24:41;;;;;;;21.02;9.07;;;15.80;94.00;;;;;;5159189;27;20034;-78
2023/10/01 07:27:11;;;;;;;18.65;8.80;;;15.80;93.90;;;;;;5157295;27;20180;-79
2023/10/01 07:29:44;;;;;;;19.65;8.70;;;15.90;93.80;;;;;;5159181;27;20491;-80
2023/10/01 07:32:12;;;;;;;23.58;11.15;;;15.90;93.90;;;;;;5159137;27;20042;-80
2023/10/01 07:34:48;;;;;;;20.90;9.93;;;16.00;94.00;;;;;;5158811;27;20038;-77
2023/10/01 07:37:23;;;;;;;16.50;9.05;;;16.00;94.00;;;;;;5141628;27;20474;-80
2023/10/01 07:39:59;;;;;;;21.35;9.48;;;16.00;94.00;;;;;;5142673;27;20038;-78
2023/10/01 07:42:28;;;;;;;17.83;10.25;;;16.00;93.90;;;;;;5157644;27;20075;-81
2023/10/01 07:44:56;;;;;;;20.63;8.80;;;16.00;93.80;;;;;;5141615;27;20042;-77
2023/10/01 07:47:28;;;;;;;21.77;9.10;;;16.00;93.80;;;;;;5141509;27;20034;-80
2023/10/01 07:50:01;;;;;;;19.48;8.88;;;16.00;93.80;;;;;;5158844;27;20038;-79
2023/10/01 07:52:27;;;;;;;23.80;9.67;;;16.00;93.80;;;;;;5142679;27;20405;-80
2023/10/01 07:54:55;;;;;;;19.05;9.35;;;16.10;93.90;;;;;;5158768;27;20280;-80
2023/10/01 07:57:27;;;;;;;22.17;8.88;;;16.10;94.00;;;;;;5143156;27;20397;-81
2023/10/01 07:59:55;;;;;;;22.48;9.57;;;16.10;93.90;;;;;;5133442;27;20554;-81
2023/10/01 08:02:21;;;;;;;18.75;8.75;;;16.20;93.90;;;;;;5120537;27;20046;-80
2023/10/01 08:04:57;;;;;;;21.75;9.80;;;16.20;93.80;;;;;;5137848;27;20434;-81
2023/10/01 08:07:45;;;;;;;20.83;9.63;;;16.30;93.90;;;;;;5138212;27;20039;-80
2023/10/01 08:10:16;;;;;;;18.27;9.40;;;16.30;93.80;;;;;;5123641;27;20042;-78
2023/10/01 08:15:38;;;;;;;29.15;10.38;;;16.50;93.60;;;;;;5138279;27;20046;-79
2023/10/01 08:18:26;;;;;;;24.65;10.23;;;16.50;93.60;;;;;;5126023;27;20046;-81
2023/10/01 08:20:59;;;;;;;16.67;8.82;;;16.60;93.60;;;;;;5140926;27;20125;-80
2023/10/01 08:23:30;;;;;;;22.17;10.02;;;16.70;93.70;;;;;;5158709;27;20077;-79
2023/10/01 08:25:58;;;;;;;19.20;8.77;;;16.80;93.50;;;;;;5141566;27;20050;-80
2023/10/01 08:31:01;;;;;;;17.77;9.32;;;17.10;93.10;;;;;;5157938;27;20043;-80
2023/10/01 08:33:32;;;;;;;22.55;9.20;;;17.30;92.90;;;;;;5156650;27;20117;-81
2023/10/01 08:36:14;;;;;;;14.85;7.38;;;17.40;92.60;;;;;;5140263;27;20042;-83
2023/10/01 08:39:19;;;;;;;17.42;8.05;;;17.50;92.40;;;;;;5112339;27;20497;-82
2023/10/01 08:41:50;;;;;;;22.10;9.40;;;17.70;92.30;;;;;;5144931;27;20042;-78
2023/10/01 08:44:30;;;;;;;20.27;8.80;;;17.80;91.70;;;;;;5141487;27;20038;-80
2023/10/01 08:46:59;;;;;;;19.33;8.82;;;17.90;91.60;;;;;;5141556;27;20043;-80
2023/10/01 08:49:31;;;;;;;19.42;8.80;;;18.00;91.00;;;;;;5138507;27;20064;-82
2023/10/01 08:54:44;;;;;;;21.70;10.35;;;18.10;90.70;;;;;;5136465;27;20043;-81
2023/10/01 08:57:36;;;;;;;16.55;8.13;;;18.20;90.40;;;;;;5119472;27;20518;-81
2023/10/01 09:00:14;;;;;;;17.85;9.00;;;18.30;90.40;;;;;;5105707;27;20034;-81
2023/10/01 09:02:40;;;;;;;21.17;8.75;;;18.20;90.20;;;;;;5136504;27;20118;-81
2023/10/01 09:05:08;;;;;;;22.00;9.98;;;18.30;90.20;;;;;;5148659;27;20144;-80
2023/10/01 09:07:41;;;;;;;22.45;10.95;;;18.30;89.70;;;;;;5157390;27;20052;-82
2023/10/01 09:10:09;;;;;;;24.25;10.80;;;18.40;89.80;;;;;;5139797;27;20038;-80
2023/10/01 09:12:45;;;;;;;19.30;9.88;;;18.50;89.20;;;;;;5157129;27;20126;-79
2023/10/01 09:15:38;;;;;;;25.92;9.43;;;18.50;89.40;;;;;;5140134;27;20461;-81
2023/10/01 09:18:10;;;;;;;18.13;9.10;;;18.60;89.20;;;;;;5157316;27;20046;-82
2023/10/01 09:21:06;;;;;;;22.02;9.98;;;18.70;89.40;;;;;;5137611;27;20034;-81
2023/10/01 09:23:56;;;;;;;20.45;9.77;;;18.70;88.40;;;;;;5142000;27;20046;-81
2023/10/01 09:26:42;;;;;;;21.33;9.65;;;18.70;89.00;;;;;;5139810;27;20159;-84
2023/10/01 09:29:25;;;;;;;19.50;9.50;;;18.80;88.60;;;;;;5164322;27;20041;-82
2023/10/01 09:31:56;;;;;;;20.95;9.82;;;18.80;88.40;;;;;;5164114;27;20042;-80
2023/10/01 09:34:35;;;;;;;18.95;8.95;;;18.90;87.80;;;;;;5164897;27;20090;-78
2023/10/01 09:37:11;;;;;;;21.52;9.38;;;18.80;88.00;;;;;;5162705;27;20049;-82
2023/10/01 09:39:41;;;;;;;17.40;8.48;;;18.80;88.10;;;;;;5164694;27;20045;-84
2023/10/01 09:42:28;;;;;;;20.88;9.57;;;18.80;87.50;;;;;;5146561;27;20042;-81
2023/10/01 09:45:09;;;;;;;19.50;9.30;;;18.70;87.60;;;;;;5163942;27;20389;-83
2023/10/01 09:47:35;;;;;;;19.98;10.52;;;18.90;88.00;;;;;;5164157;27;20102;-82
2023/10/01 09:50:04;;;;;;;19.38;10.10;;;18.90;87.50;;;;;;5147889;27;20049;-82
2023/10/01 09:52:48;;;;;;;21.25;9.75;;;19.00;87.60;;;;;;5134485;27;20041;-83
2023/10/01 09:55:26;;;;;;;18.17;9.35;;;19.10;87.60;;;;;;5147319;27;20038;-82
2023/10/01 09:57:54;;;;;;;21.50;10.30;;;19.20;87.00;;;;;;5127401;27;20086;-81
2023/10/01 10:00:39;;;;;;;20.05;9.45;;;19.30;86.70;;;;;;5145439;27;20046;-82
2023/10/01 10:03:16;;;;;;;23.58;9.80;;;19.30;86.60;;;;;;5126750;27;20042;-83
2023/10/01 10:05:43;;;;;;;18.15;9.90;;;19.40;86.20;;;;;;5144218;27;20398;-83
2023/10/01 10:08:42;;;;;;;20.35;9.15;;;19.40;86.10;;;;;;5120440;27;20398;-83
2023/10/01 10:11:06;;;;;;;19.52;10.60;;;19.40;85.90;;;;;;5128909;27;20038;-82
2023/10/01 10:19:21;;;;;;;19.17;9.85;;;19.30;85.60;;;;;;5128536;27;20086;-81
2023/10/01 10:24:32;;;;;;;22.17;9.60;;;19.30;85.80;;;;;;5150680;27;20044;-80
2023/10/01 10:27:07;;;;;;;20.92;10.07;;;19.30;85.90;;;;;;5145862;27;20056;-82
2023/10/01 10:29:57;;;;;;;21.98;9.95;;;19.40;85.80;;;;;;5163695;27;20041;-83
2023/10/01 10:32:24;;;;;;;25.40;10.00;;;19.40;86.00;;;;;;5145858;27;20038;-82
2023/10/01 10:35:16;;;;;;;20.85;9.43;;;19.50;85.80;;;;;;5146021;27;20098;-81
2023/10/01 10:37:53;;;;;;;21.92;10.10;;;19.60;85.20;;;;;;5158660;27;20085;-85
2023/10/01 10:43:02;;;;;;;22.42;9.18;;;19.80;85.10;;;;;;5142431;27;20117;-81
2023/10/01 10:45:45;;;;;;;19.92;9.38;;;20.00;85.00;;;;;;5162740;27;20038;-83
2023/10/01 10:48:16;;;;;;;21.15;10.18;;;20.10;84.50;;;;;;5144990;27;20074;-82
2023/10/01 10:50:48;;;;;;;20.85;10.68;;;20.10;83.50;;;;;;5142465;27;20078;-83
2023/10/01 10:53:20;;;;;;;18.80;9.95;;;20.10;83.00;;;;;;5159629;27;20496;-83
2023/10/01 10:56:06;;;;;;;19.90;10.77;;;20.30;83.20;;;;;;5142509;27;20084;-82
2023/10/01 10:58:37;;;;;;;22.65;10.65;;;20.30;82.10;;;;;;5158216;27;20034;-83
2023/10/01 11:01:16;;;;;;;21.02;9.85;;;20.40;82.40;;;;;;5142117;27;20074;-81
2023/10/01 11:03:43;;;;;;;19.60;10.50;;;20.30;82.60;;;;;;5159347;27;20564;-81
2023/10/01 11:06:22;;;;;;;23.08;10.65;;;20.30;82.70;;;;;;5159422;27;20359;-82
2023/10/01 11:08:51;;;;;;;21.42;11.30;;;20.40;82.50;;;;;;5159311;27;20073;-82
2023/10/01 11:11:25;;;;;;;39.67;11.48;;;20.40;82.20;;;;;;5159556;27;20387;-81
2023/10/01 11:14:00;;;;;;;20.52;9.00;;;20.40;81.60;;;;;;5159139;27;20070;-81
2023/10/01 11:16:33;;;;;;;18.05;9.13;;;20.50;81.60;;;;;;5140809;27;20045;-83
2023/10/01 11:19:12;;;;;;;20.08;9.38;;;20.60;81.20;;;;;;5159321;27;20038;-83
2023/10/01 11:21:58;;;;;;;21.52;9.88;;;20.60;81.10;;;;;;5141821;27;20041;-83
2023/10/01 11:24:30;;;;;;;18.45;9.70;;;20.70;81.00;;;;;;5159337;27;20050;-81
2023/10/01 11:27:11;;;;;;;18.50;10.13;;;20.80;80.70;;;;;;5155229;27;20082;-81
2023/10/01 11:29:58;;;;;;;24.27;10.63;;;20.90;80.00;;;;;;5138475;27;20046;-80
2023/10/01 11:32:58;;;;;;;26.95;11.07;;;20.90;79.40;;;;;;5136962;27;20179;-80
2023/10/01 11:35:35;;;;;;;19.20;10.25;;;20.80;78.70;;;;;;5155414;27;20095;-80
2023/10/01 11:38:04;;;;;;;16.20;9.23;;;20.90;79.50;;;;;;5155314;27;20043;-79
2023/10/01 11:41:06;;;;;;;24.85;10.85;;;21.00;79.30;;;;;;5137913;27;20095;-81
2023/10/01 11:43:38;;;;;;;21.88;10.38;;;21.10;78.90;;;;;;5140695;27;20047;-82
2023/10/01 11:46:21;;;;;;;21.48;10.27;;;21.00;78.70;;;;;;5140380;27;20498;-82
2023/10/01 11:49:02;;;;;;;19.85;10.23;;;21.20;78.70;;;;;;5153811;27;20050;-81
2023/10/01 11:51:50;;;;;;;21.55;11.02;;;21.30;78.50;;;;;;5138324;27;20390;-84
2023/10/01 11:54:21;;;;;;;22.67;10.98;;;21.40;77.80;;;;;;5155087;27;20121;-82
2023/10/01 11:57:04;;;;;;;22.67;11.23;;;21.10;78.20;;;;;;5137918;27;20466;-80
2023/10/01 11:59:42;;;;;;;20.58;10.60;;;21.20;78.40;;;;;;5154830;27;20053;-81
2023/10/01 12:02:21;;;;;;;19.85;10.70;;;21.30;78.50;;;;;;5137991;27;20038;-81
2023/10/01 12:04:57;;;;;;;18.63;9.68;;;21.40;78.10;;;;;;5136622;27;20371;-82
2023/10/01 12:07:32;;;;;;;17.73;9.90;;;21.50;77.50;;;;;;5137449;27;20117;-81
2023/10/01 12:09:59;;;;;;;16.30;9.93;;;21.60;77.80;;;;;;5155139;27;20043;-80
2023/10/01 12:12:28;;;;;;;24.65;10.57;;;21.60;77.40;;;;;;5154850;27;20027;-83
2023/10/01 12:14:55;;;;;;;19.95;10.85;;;21.60;76.70;;;;;;5137224;27;20031;-83
2023/10/01 12:17:28;;;;;;;17.70;10.90;;;21.60;77.00;;;;;;5154473;27;20498;-81
2023/10/01 12:19:59;;;;;;;21.42;10.98;;;21.70;76.60;;;;;;5120261;27;20049;-82
2023/10/01 12:22:29;;;;;;;22.27;11.07;;;21.70;76.00;;;;;;5136045;27;20031;-79
2023/10/01 12:24:59;;;;;;;19.15;10.95;;;21.50;76.50;;;;;;5154317;27;20066;-82
2023/10/01 12:27:43;;;;;;;18.25;10.25;;;21.50;77.10;;;;;;5154247;27;20402;-83
2023/10/01 12:30:27;;;;;;;17.00;10.70;;;21.50;77.40;;;;;;5154609;27;20034;-80
2023/10/01 12:32:56;;;;;;;19.75;10.43;;;21.40;77.30;;;;;;5154407;27;20091;-82
2023/10/01 12:35:28;;;;;;;20.33;10.70;;;21.50;77.80;;;;;;5137843;27;20039;-79
2023/10/01 12:40:52;;;;;;;21.50;10.48;;;21.40;77.80;;;;;;5154143;27;20054;-82
2023/10/01 12:43:37;;;;;;;29.27;11.60;;;21.40;78.00;;;;;;5121235;27;20436;-82
2023/10/01 12:46:13;;;;;;;23.08;11.43;;;21.50;77.80;;;;;;5153862;27;20043;-82
2023/10/01 12:49:27;;;;;;;21.83;10.20;;;21.80;77.80;;;;;;5136769;27;20117;-81
2023/10/01 12:51:33;;;;;;;20.17;11.38;;;22.00;77.20;;;;;;5139891;27;20122;-82
2023/10/01 12:53:59;;;;;;;21.17;10.57;;;22.10;75.70;;;;;;5154326;27;20054;-81
2023/10/01 12:56:44;;;;;;;21.83;11.60;;;22.20;75.70;;;;;;5136531;27;20483;-82
2023/10/01 12:59:18;;;;;;;;;;;22.40;75.30;;;;;;5123317;27;20129;-82
2023/10/01 13:01:50;;;;;;;25.27;10.95;;;22.50;74.10;;;;;;5153938;27;20001;-83
2023/10/01 13:04:25;;;;;;;24.48;10.73;;;22.60;74.10;;;;;;5136773;27;20050;-82
2023/10/01 13:06:53;;;;;;;23.33;10.70;;;22.70;73.90;;;;;;5120398;27;20486;-82
2023/10/01 13:09:35;;;;;;;17.80;9.23;;;22.90;73.70;;;;;;5136701;27;20039;-82
2023/10/01 13:12:10;;;;;;;20.98;9.05;;;22.90;73.30;;;;;;5121693;27;20039;-82
2023/10/01 13:14:35;;;;;;;20.77;10.95;;;23.00;73.30;;;;;;5137983;27;20046;-82
2023/10/01 13:17:02;;;;;;;19.13;9.60;;;23.00;73.10;;;;;;5153791;27;20038;-83
2023/10/01 13:19:33;;;;;;;22.08;9.55;;;22.90;73.50;;;;;;5119452;27;20486;-82
2023/10/01 13:22:05;;;;;;;21.15;10.10;;;22.90;73.50;;;;;;5153869;27;20084;-83
2023/10/01 13:24:34;;;;;;;18.52;9.75;;;22.80;73.50;;;;;;5136494;27;20046;-82
2023/10/01 13:27:10;;;;;;;17.40;9.60;;;22.80;73.50;;;;;;5153264;27;20050;-83
2023/10/01 13:29:38;;;;;;;17.73;9.43;;;22.80;74.30;;;;;;5138081;27;20074;-81
2023/10/01 13:32:15;;;;;;;17.75;9.20;;;22.70;72.90;;;;;;5153337;27;20035;-82
2023/10/01 13:34:54;;;;;;;20.40;9.52;;;22.60;71.60;;;;;;5153626;27;20065;-81
2023/10/01 14:10:04;;;;;;;;;;;22.00;75.80;;;;;;5153513;27;20050;-84
2023/10/01 14:12:54;;;;;;;22.48;10.40;;;22.00;75.90;;;;;;5135886;27;19926;-82
2023/10/01 14:15:21;;;;;;;20.25;9.98;;;22.10;75.50;;;;;;5155778;27;20043;-84
2023/10/01 14:17:52;;;;;;;23.98;10.73;;;22.20;76.00;;;;;;5156939;27;20050;-81
2023/10/01 14:20:38;;;;;;;20.95;10.38;;;22.10;76.00;;;;;;5139496;27;20047;-83
2023/10/01 14:23:05;;;;;;;23.80;10.55;;;22.10;76.20;;;;;;5156876;27;20176;-83